Information Last Ob Photographs Calibration Meteogram Network Table Neighbors 7 Day High/Low Plot Month High/Low Plot Month Rainfall Plot Observation History Wind Roses Custom Wind Roses Data Calendar Download

Most Recent Observation

This application displays the last observation received by the IEM from this site. The time stamp is in America/Chicago timezone.

Observation Local Time17 Oct 2017, 10:54 AM
Observation UTC Time2017-10-17T15:54:00Z
Air Temp [F]63
Maximum Air Temperature [F]64
Minimum Air Temperature [F]50
Dew Point [F]42.1
Wind Direction230
Wind Speed [knots]11
Altimeter [inches]30.13
Raw Observation/ProductKDSM 171554Z 23011KT 10SM FEW250 17/06 A3013 RMK AO2 SLP201 T01720056

This data was provided by a JSON(P) webservice. You can find more JSON services.